Time;durP1;ratioP1;P1;durP2;ratioP2;P2;SDS_P1;SDS_P2;PMS_P1;PMS_P2;Temp;Humidity;BMP_temperature;BMP_pressure;BME280_temperature;BME280_humidity;BME280_pressure;Samples;Min_cycle;Max_cycle;Signal;HPM_P1;HPM_P2
2023/06/09 00:01:14;;;;;;;7.83;3.80;;;19.60;67.70;;;22.40;46.93;101630.63;5055713;28;20229;-65
2023/06/09 00:03:41;;;;;;;9.43;4.03;;;19.70;67.90;;;22.43;46.85;101625.63;5053886;28;20289;-65
2023/06/09 00:06:08;;;;;;;9.67;4.40;;;19.70;68.00;;;22.44;47.07;101621.88;5055487;28;20209;-65
2023/06/09 00:08:36;;;;;;;10.73;4.70;;;19.70;68.00;;;22.43;46.47;101620.25;5042895;28;20194;-66
2023/06/09 00:11:04;;;;;;;7.20;4.37;;;19.60;68.00;;;22.43;46.90;101625.63;5055224;28;20198;-65
2023/06/09 00:13:31;;;;;;;9.77;4.50;;;19.60;68.20;;;22.42;47.08;101623.97;5055986;28;20225;-65
2023/06/09 00:15:58;;;;;;;6.97;3.87;;;19.70;68.30;;;22.44;46.92;101623.78;5037160;28;20277;-65
2023/06/09 00:18:25;;;;;;;7.43;3.97;;;19.70;68.20;;;22.46;46.81;101614.44;5035811;28;20218;-64
2023/06/09 00:20:52;;;;;;;9.13;4.13;;;19.70;68.30;;;22.49;46.86;101610.47;5035605;28;20218;-64
2023/06/09 00:23:19;;;;;;;5.83;4.00;;;19.70;67.90;;;22.48;46.63;101612.34;5035164;28;20265;-64
2023/06/09 00:25:46;;;;;;;8.47;4.73;;;19.70;68.00;;;22.50;46.87;101612.09;5041924;28;20695;-64
2023/06/09 00:28:15;;;;;;;6.17;4.03;;;19.70;67.90;;;22.47;46.73;101605.31;5040823;28;20656;-66
2023/06/09 00:30:42;;;;;;;6.13;3.77;;;19.70;67.80;;;22.44;46.58;101608.47;5041174;28;20659;-64
2023/06/09 00:33:09;;;;;;;11.07;4.60;;;19.70;67.80;;;22.42;46.45;101613.25;5055285;28;20193;-64
2023/06/09 00:35:36;;;;;;;6.70;3.80;;;19.70;67.90;;;22.35;46.23;101601.81;5055371;28;20229;-64
2023/06/09 00:38:03;;;;;;;10.40;4.30;;;19.60;67.70;;;22.32;46.66;101606.84;5055493;28;20585;-64
2023/06/09 00:40:30;;;;;;;8.53;3.73;;;19.60;68.50;;;22.27;47.15;101599.47;5054132;28;20239;-64
2023/06/09 00:42:59;;;;;;;5.77;4.23;;;19.60;68.20;;;22.23;47.07;101599.09;5052634;28;20193;-65
2023/06/09 00:45:27;;;;;;;11.03;4.67;;;19.50;68.40;;;22.22;47.69;101602.03;5035458;28;20206;-64
2023/06/09 00:47:55;;;;;;;8.00;4.23;;;19.50;68.60;;;22.18;47.49;101606.19;5034858;28;20229;-64
2023/06/09 00:50:22;;;;;;;9.27;4.57;;;19.50;68.80;;;22.16;47.48;101605.63;5035246;28;20190;-66
2023/06/09 00:52:52;;;;;;;7.33;4.77;;;19.40;68.80;;;22.17;47.25;101609.94;5034679;28;20627;-65
2023/06/09 00:55:21;;;;;;;8.77;4.90;;;19.40;69.00;;;22.15;47.65;101606.69;5039537;28;20291;-64
2023/06/09 00:57:55;;;;;;;10.20;4.97;;;19.40;68.80;;;22.12;47.06;101601.75;5054958;28;20182;-64
2023/06/09 01:00:26;;;;;;;8.17;4.37;;;19.30;68.80;;;22.08;47.62;101596.03;5041233;28;20209;-65
2023/06/09 01:03:00;;;;;;;11.53;4.90;;;19.40;69.20;;;22.08;47.80;101593.34;5053350;28;20224;-64
2023/06/09 01:05:29;;;;;;;5.50;4.50;;;19.30;69.20;;;22.05;47.21;101599.19;5034390;28;20213;-64
2023/06/09 01:08:04;;;;;;;9.37;5.13;;;19.30;68.90;;;22.02;47.28;101596.13;5034247;28;20277;-65
2023/06/09 01:10:41;;;;;;;8.83;4.73;;;19.30;69.10;;;21.98;47.33;101597.63;5034995;28;20198;-64
2023/06/09 01:13:24;;;;;;;9.73;5.10;;;19.30;69.10;;;21.95;47.53;101587.34;5034686;28;20551;-64
2023/06/09 01:16:00;;;;;;;10.83;4.67;;;19.20;69.00;;;21.91;47.19;101595.06;5034246;28;20245;-65
2023/06/09 01:18:32;;;;;;;9.30;4.67;;;19.20;69.20;;;21.87;47.31;101593.06;5054590;28;20177;-64
2023/06/09 01:21:12;;;;;;;7.93;4.67;;;19.20;69.50;;;21.79;47.66;101590.66;5054261;28;20264;-67
2023/06/09 01:23:53;;;;;;;8.70;4.93;;;19.10;69.50;;;21.78;48.07;101594.38;5054359;28;20690;-67
2023/06/09 01:26:23;;;;;;;9.97;4.97;;;19.00;69.50;;;21.78;48.08;101599.72;5049519;28;20223;-66
2023/06/09 01:28:52;;;;;;;8.33;5.07;;;19.00;70.10;;;21.80;48.11;101595.78;5054407;28;20166;-66
2023/06/09 01:31:20;;;;;;;9.23;5.20;;;19.10;70.00;;;21.80;47.84;101593.09;5053850;28;20197;-65
2023/06/09 01:33:47;;;;;;;10.47;4.70;;;19.00;69.70;;;21.75;47.81;101590.28;5053983;28;20186;-65
2023/06/09 01:36:15;;;;;;;11.53;5.53;;;19.00;69.80;;;21.71;47.92;101593.66;5048684;28;20245;-65
2023/06/09 01:38:43;;;;;;;7.03;4.53;;;19.00;69.90;;;21.66;48.48;101598.88;5034174;28;20601;-65
2023/06/09 01:41:10;;;;;;;8.80;4.57;;;18.90;70.20;;;21.63;48.67;101597.47;5044570;28;20217;-65
2023/06/09 01:43:38;;;;;;;8.27;4.70;;;18.90;70.40;;;21.62;48.44;101595.00;5053841;28;20232;-67
2023/06/09 01:46:06;;;;;;;10.17;5.00;;;18.90;70.40;;;21.59;48.28;101594.41;5053929;28;20717;-65
2023/06/09 01:48:50;;;;;;;8.87;4.80;;;18.90;70.50;;;21.55;48.69;101590.56;5054057;28;20681;-64
2023/06/09 01:51:26;;;;;;;15.47;5.70;;;18.80;70.60;;;21.53;48.40;101581.94;5053397;28;20186;-66
2023/06/09 01:54:01;;;;;;;10.33;4.70;;;18.80;70.60;;;21.49;48.77;101591.44;5053650;28;20276;-65
2023/06/09 01:56:36;;;;;;;8.60;5.40;;;18.80;70.80;;;21.46;48.76;101591.91;5040841;28;20233;-65
2023/06/09 01:59:11;;;;;;;8.60;4.73;;;18.70;71.00;;;21.43;48.91;101586.19;5033521;28;20221;-66
2023/06/09 02:01:40;;;;;;;12.70;5.57;;;18.70;71.10;;;21.40;48.72;101581.25;5043244;28;20292;-64
2023/06/09 02:04:11;;;;;;;10.13;5.60;;;18.60;70.90;;;21.34;48.76;101577.63;5053816;28;20200;-65
2023/06/09 02:06:40;;;;;;;12.07;5.93;;;18.60;71.20;;;21.32;48.93;101586.94;5052829;28;20232;-64
2023/06/09 02:09:09;;;;;;;10.50;5.90;;;18.60;71.40;;;21.28;49.41;101583.88;5034081;28;20232;-65
2023/06/09 02:11:37;;;;;;;12.00;5.60;;;18.50;71.40;;;21.25;49.40;101592.34;5032794;28;20210;-66
2023/06/09 02:14:05;;;;;;;10.30;5.77;;;18.50;71.50;;;21.24;49.57;101592.59;5033264;28;20194;-65
2023/06/09 02:16:32;;;;;;;11.10;5.90;;;18.50;71.70;;;21.23;49.12;101597.13;5033831;28;20245;-66
2023/06/09 02:19:00;;;;;;;9.03;5.50;;;18.50;71.90;;;21.25;49.53;101597.72;5033567;28;20726;-65
2023/06/09 02:21:27;;;;;;;9.10;5.30;;;18.50;72.00;;;21.26;49.56;101602.03;5033788;28;20272;-66
2023/06/09 02:23:54;;;;;;;9.23;5.10;;;18.50;72.20;;;21.31;49.76;101604.88;5043163;28;20214;-66
2023/06/09 02:26:22;;;;;;;10.07;5.53;;;18.50;72.30;;;21.35;49.80;101606.03;5053623;28;20218;-66
2023/06/09 02:28:49;;;;;;;14.17;6.50;;;18.50;72.20;;;21.38;49.45;101599.44;5053467;28;20221;-65
2023/06/09 02:31:17;;;;;;;7.10;4.90;;;18.60;72.20;;;21.42;49.64;101600.59;5053788;28;20720;-65
2023/06/09 02:33:44;;;;;;;10.00;5.30;;;18.60;71.80;;;21.43;49.45;101602.25;5053427;28;20573;-64
2023/06/09 02:36:12;;;;;;;8.60;5.07;;;18.60;71.60;;;21.41;49.32;101602.50;5053446;28;20233;-64
2023/06/09 02:38:40;;;;;;;7.73;5.00;;;18.60;71.60;;;21.42;49.54;101604.09;5052242;28;20202;-65
2023/06/09 02:41:07;;;;;;;12.03;6.07;;;18.60;71.80;;;21.42;49.60;101601.44;5051741;28;20740;-64
2023/06/09 02:43:34;;;;;;;8.17;5.40;;;18.70;72.00;;;21.44;49.53;101604.69;5053114;28;20194;-65
2023/06/09 02:46:01;;;;;;;11.07;6.07;;;18.70;71.70;;;21.45;48.92;101595.63;5053528;28;20209;-64
2023/06/09 02:48:29;;;;;;;9.00;5.50;;;18.70;71.50;;;21.45;48.89;101592.94;5053528;28;20190;-64
2023/06/09 02:50:56;;;;;;;12.00;5.80;;;18.70;71.40;;;21.44;49.12;101593.97;5053697;28;20182;-65
2023/06/09 02:53:28;;;;;;;9.20;5.50;;;18.60;71.30;;;21.43;49.41;101597.72;5052817;28;20202;-64
2023/06/09 02:55:55;;;;;;;12.43;5.97;;;18.60;71.60;;;21.42;49.00;101595.25;5053231;28;20221;-64
2023/06/09 02:58:24;;;;;;;9.80;5.60;;;18.70;71.70;;;21.40;49.54;101595.47;5041793;28;20273;-65
2023/06/09 03:00:51;;;;;;;10.53;5.97;;;18.60;71.50;;;21.40;49.13;101587.44;5036150;28;20209;-63
2023/06/09 03:03:18;;;;;;;8.47;5.53;;;18.60;71.50;;;21.41;49.22;101593.63;5052789;28;20191;-65
2023/06/09 03:05:49;;;;;;;7.03;5.40;;;18.60;71.60;;;21.41;49.43;101594.44;5052770;28;20237;-65
2023/06/09 03:08:16;;;;;;;9.60;5.17;;;18.70;71.70;;;21.43;48.93;101597.72;5043103;28;20580;-64
2023/06/09 03:10:43;;;;;;;5.80;4.57;;;18.60;71.70;;;21.43;49.24;101592.38;5033967;28;20191;-64
2023/06/09 03:13:10;;;;;;;13.53;6.13;;;18.60;71.50;;;21.45;48.80;101595.63;5051264;28;20232;-65
2023/06/09 03:15:40;;;;;;;12.80;6.33;;;18.70;71.70;;;21.44;48.92;101593.97;5040035;28;20210;-66
2023/06/09 03:18:07;;;;;;;9.77;5.90;;;18.60;71.30;;;21.41;49.35;101602.50;5036765;28;20191;-65
2023/06/09 03:20:37;;;;;;;12.73;5.87;;;18.60;71.60;;;21.40;48.94;101598.16;5051980;28;20213;-64
2023/06/09 03:23:07;;;;;;;11.73;6.23;;;18.60;71.60;;;21.40;49.32;101608.88;5055793;28;20614;-65
2023/06/09 03:25:34;;;;;;;9.43;5.83;;;18.60;71.70;;;21.38;49.57;101602.94;5050052;28;20219;-65
2023/06/09 03:28:01;;;;;;;7.67;5.40;;;18.60;71.90;;;21.37;49.73;101614.69;5054926;28;20216;-64
2023/06/09 03:30:28;;;;;;;8.07;5.37;;;18.60;72.00;;;21.37;49.58;101609.31;5056724;28;20273;-64
2023/06/09 03:32:55;;;;;;;12.53;6.33;;;18.60;72.10;;;21.39;49.46;101612.63;5055754;28;20193;-64
2023/06/09 03:35:22;;;;;;;8.90;5.40;;;18.60;71.90;;;21.39;49.33;101617.16;5056872;28;20214;-65
2023/06/09 03:37:49;;;;;;;8.57;4.93;;;18.50;71.70;;;21.35;48.78;101619.44;5056867;28;20252;-64
2023/06/09 03:40:17;;;;;;;7.50;5.40;;;18.50;71.80;;;21.33;49.33;101610.81;5054877;28;20307;-65
2023/06/09 03:42:44;;;;;;;11.13;6.57;;;18.50;72.20;;;21.36;49.01;101620.25;5057306;28;20573;-64
2023/06/09 03:45:11;;;;;;;9.27;6.03;;;18.50;72.10;;;21.37;49.04;101619.25;5056869;28;20301;-64
2023/06/09 03:47:38;;;;;;;8.33;5.93;;;18.50;71.90;;;21.40;49.14;101619.59;5055554;28;20247;-65
2023/06/09 03:50:08;;;;;;;11.57;5.77;;;18.50;72.10;;;21.42;49.43;101612.16;5055725;28;20235;-65
2023/06/09 03:52:36;;;;;;;6.70;5.13;;;18.60;72.20;;;21.46;49.55;101612.53;5057527;28;20554;-64
2023/06/09 03:55:07;;;;;;;9.13;6.00;;;18.60;72.20;;;21.52;48.94;101620.47;5053978;28;20206;-64
2023/06/09 03:57:35;;;;;;;11.10;6.43;;;18.60;72.00;;;21.57;49.14;101628.66;5057615;28;20570;-65
2023/06/09 04:00:04;;;;;;;12.13;6.27;;;18.70;72.10;;;21.61;49.05;101622.88;5057881;28;20216;-63
2023/06/09 04:02:31;;;;;;;9.97;6.53;;;18.70;71.60;;;21.61;48.50;101620.19;5058344;28;20193;-65
2023/06/09 04:04:59;;;;;;;8.20;6.07;;;18.70;71.50;;;21.61;48.67;101625.53;5038433;28;20206;-65
2023/06/09 04:07:29;;;;;;;12.93;5.73;;;18.70;71.40;;;21.59;48.42;101623.91;5038317;28;20194;-65
2023/06/09 04:09:56;;;;;;;7.67;6.13;;;18.70;71.50;;;21.58;48.97;101627.59;5047667;28;20247;-64
2023/06/09 04:12:23;;;;;;;9.23;5.67;;;18.70;71.40;;;21.59;49.11;101623.91;5058939;28;20190;-64
2023/06/09 04:14:52;;;;;;;16.37;6.00;;;18.70;71.50;;;21.64;49.03;101625.06;5049860;28;20242;-65
2023/06/09 04:17:19;;;;;;;9.17;6.03;;;18.80;71.60;;;21.66;48.38;101617.63;5057626;28;20194;-64
2023/06/09 04:19:46;;;;;;;8.43;5.30;;;18.80;71.40;;;21.65;48.34;101621.38;5057486;28;20561;-69
2023/06/09 04:22:13;;;;;;;9.93;6.20;;;18.80;71.90;;;21.65;48.82;101618.69;5058041;28;20256;-66
2023/06/09 04:24:40;;;;;;;14.67;7.80;;;18.80;71.40;;;21.68;48.54;101615.56;5054744;28;20218;-64
2023/06/09 04:27:07;;;;;;;14.23;7.97;;;18.80;71.20;;;21.66;48.42;101607.72;5055016;28;20194;-65
2023/06/09 04:29:34;;;;;;;10.77;6.30;;;18.80;71.10;;;21.65;48.53;101610.66;5055071;28;20214;-66
2023/06/09 04:32:07;;;;;;;9.30;6.30;;;18.80;71.10;;;21.65;48.43;101610.66;5055469;28;20255;-64
2023/06/09 04:34:39;;;;;;;11.80;6.80;;;18.80;71.20;;;21.64;48.81;101615.19;5054649;28;20289;-64
2023/06/09 04:37:08;;;;;;;11.77;6.60;;;18.80;71.30;;;21.65;48.93;101607.97;5046759;28;20233;-65
2023/06/09 04:39:35;;;;;;;10.60;6.10;;;18.80;71.50;;;21.67;48.71;101609.38;5051162;28;20202;-65
2023/06/09 04:42:04;;;;;;;7.97;5.73;;;18.80;71.70;;;21.72;48.69;101614.06;5053964;28;20222;-65
2023/06/09 04:44:32;;;;;;;12.03;6.73;;;18.80;71.60;;;21.76;48.54;101618.72;5054626;28;20218;-65
2023/06/09 04:47:00;;;;;;;11.00;6.17;;;18.80;71.50;;;21.78;48.57;101610.47;5055249;28;20244;-65
2023/06/09 04:49:30;;;;;;;10.37;6.23;;;18.90;71.50;;;21.82;48.44;101622.38;5054978;28;20244;-65
2023/06/09 04:51:59;;;;;;;8.57;5.63;;;18.90;71.30;;;21.83;48.42;101624.00;5054457;28;20337;-65
2023/06/09 04:54:28;;;;;;;13.70;6.60;;;18.90;71.40;;;21.84;48.73;101625.66;5050827;28;20213;-66
2023/06/09 04:57:00;;;;;;;12.57;7.47;;;18.90;71.10;;;21.84;48.57;101621.16;5054796;28;20276;-64
2023/06/09 04:59:30;;;;;;;13.67;6.77;;;18.90;71.20;;;21.85;48.76;101627.31;5055091;28;20201;-65
2023/06/09 05:01:57;;;;;;;8.67;6.40;;;18.90;71.20;;;21.84;48.30;101633.69;5055944;28;20202;-65
2023/06/09 05:04:26;;;;;;;8.50;6.40;;;19.00;71.40;;;21.86;48.02;101628.94;5055195;28;20221;-65
2023/06/09 05:06:55;;;;;;;9.73;5.77;;;18.90;71.20;;;21.89;48.69;101623.16;5050504;28;20202;-65
2023/06/09 05:09:21;;;;;;;9.67;6.03;;;19.00;71.20;;;21.91;48.22;101631.78;5034432;28;20203;-65
2023/06/09 05:11:49;;;;;;;10.17;6.20;;;19.00;71.00;;;21.94;48.19;101629.44;5039265;28;20194;-67
2023/06/09 05:14:16;;;;;;;8.83;6.53;;;19.10;71.10;;;22.00;47.83;101631.22;5049752;28;20248;-65
2023/06/09 05:16:45;;;;;;;7.03;6.00;;;19.10;70.80;;;22.02;48.05;101634.50;5034142;28;20191;-67
2023/06/09 05:19:13;;;;;;;12.13;6.93;;;19.10;70.80;;;22.04;48.03;101636.94;5034009;28;20201;-65
2023/06/09 05:21:40;;;;;;;10.77;6.60;;;19.10;70.60;;;22.05;47.86;101633.22;5040764;28;20576;-65
2023/06/09 05:24:09;;;;;;;13.50;7.00;;;19.10;70.50;;;22.06;48.03;101638.34;5053469;28;20194;-64
2023/06/09 05:26:36;;;;;;;11.87;6.30;;;19.20;70.90;;;22.12;48.16;101647.34;5054029;28;20194;-66
2023/06/09 05:29:03;;;;;;;9.83;6.87;;;19.20;70.80;;;22.18;48.22;101644.56;5054151;28;20229;-66
2023/06/09 05:31:31;;;;;;;8.40;5.87;;;19.20;70.60;;;22.23;47.37;101636.66;5054410;28;20189;-65
2023/06/09 05:33:59;;;;;;;11.53;6.10;;;19.30;70.80;;;22.29;47.67;101634.09;5053529;28;20293;-64
2023/06/09 05:36:26;;;;;;;8.93;6.00;;;19.30;70.60;;;22.32;47.85;101639.84;5041903;28;20655;-65
2023/06/09 05:38:52;;;;;;;11.57;6.83;;;19.30;70.40;;;22.36;47.30;101638.34;5033720;28;20557;-64
2023/06/09 05:41:21;;;;;;;11.53;7.07;;;19.40;70.60;;;22.43;47.47;101641.72;5045303;28;20694;-65
2023/06/09 05:43:48;;;;;;;9.57;6.40;;;19.40;70.40;;;22.48;47.39;101644.53;5053575;28;20283;-64
2023/06/09 05:46:15;;;;;;;10.20;6.60;;;19.50;70.40;;;22.54;47.28;101656.22;5053677;28;20565;-64
2023/06/09 05:48:42;;;;;;;10.07;6.67;;;19.60;70.10;;;22.58;46.80;101650.16;5053866;28;20196;-63
2023/06/09 05:51:09;;;;;;;10.97;6.23;;;19.60;69.80;;;22.64;46.81;101651.13;5052317;28;20214;-64
2023/06/09 05:53:36;;;;;;;11.73;7.40;;;19.70;69.60;;;22.69;46.64;101662.81;5052686;28;20612;-63
2023/06/09 05:56:05;;;;;;;11.40;7.00;;;19.80;69.30;;;22.72;46.97;101656.16;5048932;28;20261;-64
2023/06/09 05:58:34;;;;;;;12.47;7.97;;;19.80;69.00;;;22.79;46.99;101660.38;5033184;28;20199;-64
2023/06/09 06:01:03;;;;;;;10.37;6.60;;;19.90;69.10;;;22.88;46.55;101660.84;5037524;28;20561;-64
2023/06/09 06:03:31;;;;;;;9.60;6.73;;;19.90;68.90;;;22.97;46.27;101664.81;5053406;28;20194;-64
2023/06/09 06:05:59;;;;;;;10.97;6.40;;;20.00;68.70;;;23.05;46.04;101660.97;5052538;28;20214;-63
2023/06/09 06:08:26;;;;;;;10.37;6.63;;;20.10;68.40;;;23.15;46.03;101661.19;5051519;28;20702;-65
2023/06/09 06:10:53;;;;;;;8.97;6.17;;;20.20;68.50;;;23.25;45.75;101658.75;5053267;28;20217;-64
2023/06/09 06:13:20;;;;;;;10.10;6.53;;;20.20;68.10;;;23.37;45.37;101665.75;5052827;28;20252;-66
2023/06/09 06:15:48;;;;;;;11.70;6.33;;;20.30;67.90;;;23.43;44.80;101658.63;5051128;28;20663;-62
2023/06/09 06:18:15;;;;;;;10.20;6.00;;;20.40;66.80;;;23.51;44.34;101650.16;5032949;28;20357;-64
2023/06/09 06:20:42;;;;;;;10.23;6.37;;;20.50;66.00;;;23.59;44.17;101657.88;5032662;28;20232;-63
2023/06/09 06:23:11;;;;;;;9.40;5.63;;;20.60;65.70;;;23.70;44.02;101654.34;5032273;28;20195;-64
2023/06/09 06:25:41;;;;;;;10.37;5.93;;;20.70;65.80;;;23.80;43.97;101662.59;5039572;28;20640;-65
2023/06/09 06:28:08;;;;;;;9.43;7.83;;;20.80;65.60;;;23.91;43.53;101661.78;5039060;28;20198;-65
2023/06/09 06:30:37;;;;;;;9.40;7.37;;;20.90;64.90;;;23.97;43.61;101655.41;5049741;28;20205;-65
2023/06/09 06:33:06;;;;;;;7.40;6.43;;;21.00;64.80;;;24.07;43.16;101661.03;5046683;28;20563;-66
2023/06/09 06:35:34;;;;;;;7.37;6.40;;;21.10;64.40;;;24.13;42.95;101660.06;5036643;28;20305;-65
2023/06/09 06:38:01;;;;;;;9.87;6.20;;;21.20;64.30;;;24.21;42.73;101661.53;5032697;28;20194;-65
2023/06/09 06:40:29;;;;;;;8.43;6.00;;;21.30;64.20;;;24.30;42.71;101653.88;5037720;28;20198;-65
2023/06/09 06:42:56;;;;;;;7.30;5.57;;;21.30;64.40;;;24.43;42.45;101658.97;5047757;28;20218;-67
2023/06/09 06:45:23;;;;;;;6.87;6.13;;;21.50;63.40;;;24.52;42.41;101660.19;5037199;28;20237;-64
2023/06/09 06:47:51;;;;;;;9.33;5.93;;;21.50;63.40;;;24.60;42.29;101665.19;5036575;28;20269;-64
2023/06/09 06:50:20;;;;;;;6.83;5.73;;;21.70;62.60;;;24.70;41.79;101659.94;5036625;28;20277;-66
2023/06/09 06:52:50;;;;;;;7.47;5.60;;;21.70;62.20;;;24.78;41.59;101664.97;5036626;28;20178;-65
2023/06/09 06:55:17;;;;;;;12.77;6.30;;;21.80;62.10;;;24.88;41.15;101663.25;5042142;28;20741;-63
2023/06/09 06:57:45;;;;;;;8.67;5.67;;;21.90;61.80;;;24.97;41.49;101666.34;5056583;28;20555;-63
2023/06/09 07:00:16;;;;;;;10.60;5.17;;;22.00;61.30;;;25.07;40.79;101665.66;5056310;28;20285;-64
2023/06/09 07:02:46;;;;;;;7.93;6.03;;;22.10;60.90;;;25.13;40.38;101667.34;5055420;28;20209;-65
2023/06/09 07:05:15;;;;;;;7.90;6.17;;;22.20;60.10;;;25.17;39.82;101663.94;5051998;28;20233;-66
2023/06/09 07:07:45;;;;;;;7.43;5.57;;;22.30;59.40;;;25.24;40.27;101667.28;5039842;28;20263;-65
2023/06/09 07:10:13;;;;;;;9.33;6.43;;;22.40;59.40;;;25.26;39.96;101661.63;5055977;28;20198;-65
2023/06/09 07:12:41;;;;;;;9.13;6.60;;;22.40;58.70;;;25.34;39.80;101662.00;5071958;28;20216;-65
2023/06/09 07:15:10;;;;;;;7.70;5.77;;;22.50;58.50;;;25.44;40.00;101667.56;5045754;28;20205;-65
2023/06/09 07:17:37;;;;;;;8.27;6.10;;;22.60;58.60;;;25.55;39.29;101663.13;5036421;28;20198;-65
2023/06/09 07:20:06;;;;;;;9.27;5.83;;;22.70;58.50;;;25.67;39.38;101671.09;5036308;28;20524;-65
2023/06/09 07:22:33;;;;;;;8.17;5.87;;;22.80;58.10;;;25.79;39.22;101674.47;5036128;28;20210;-66
2023/06/09 07:25:03;;;;;;;8.30;5.77;;;22.90;58.00;;;25.89;38.74;101671.88;5035598;28;20214;-65
2023/06/09 07:27:30;;;;;;;6.87;5.83;;;23.00;57.30;;;25.96;37.83;101664.44;5037227;28;20201;-65
2023/06/09 07:29:57;;;;;;;7.67;6.00;;;23.10;56.80;;;26.00;37.60;101671.75;5036274;28;20218;-64
2023/06/09 07:32:24;;;;;;;7.63;5.70;;;23.20;56.10;;;26.06;37.95;101669.91;5035997;28;20605;-64
2023/06/09 07:34:53;;;;;;;7.60;5.60;;;23.30;55.90;;;26.15;37.55;101668.41;5035447;28;20301;-65
2023/06/09 07:37:20;;;;;;;8.00;5.73;;;23.40;56.10;;;26.23;37.84;101669.84;5050922;28;20214;-64
2023/06/09 07:39:47;;;;;;;7.47;5.50;;;23.50;55.80;;;26.35;37.86;101675.91;5036338;28;20186;-65
2023/06/09 07:42:15;;;;;;;7.20;5.70;;;23.50;55.80;;;26.41;36.58;101672.97;5053528;28;20245;-65
2023/06/09 07:44:43;;;;;;;9.47;5.77;;;23.60;54.40;;;26.53;36.62;101670.94;5044934;28;20248;-64
2023/06/09 07:47:10;;;;;;;6.50;5.10;;;23.70;54.80;;;26.69;36.25;101661.91;5054259;28;20201;-64
2023/06/09 07:49:37;;;;;;;5.93;5.33;;;23.80;54.50;;;26.82;36.41;101668.75;5056034;28;20229;-65
2023/06/09 07:52:06;;;;;;;8.33;5.33;;;24.00;54.40;;;26.94;35.73;101671.28;5056050;28;20192;-65
2023/06/09 07:54:46;;;;;;;6.87;5.20;;;24.10;53.30;;;27.05;35.13;101667.59;5050790;28;20593;-66
2023/06/09 07:57:15;;;;;;;8.43;5.30;;;24.20;52.70;;;27.14;35.35;101672.25;5033989;28;20240;-64
2023/06/09 07:59:45;;;;;;;6.93;5.17;;;24.30;52.30;;;27.23;34.95;101664.44;5035458;28;20206;-65
2023/06/09 08:02:12;;;;;;;8.57;5.80;;;24.40;52.20;;;27.33;34.95;101661.78;5049225;28;20256;-65
2023/06/09 08:04:42;;;;;;;7.70;5.60;;;24.50;52.30;;;27.44;34.64;101658.06;5054728;28;20227;-65
2023/06/09 08:07:09;;;;;;;6.83;4.73;;;24.60;51.40;;;27.58;33.57;101658.41;5053974;28;20550;-64
2023/06/09 08:09:37;;;;;;;6.83;4.90;;;24.70;50.40;;;27.71;33.15;101661.44;5035756;28;20212;-64
2023/06/09 08:12:06;;;;;;;8.03;5.60;;;24.80;50.10;;;27.84;33.80;101666.34;5035226;28;20614;-64
2023/06/09 08:14:34;;;;;;;6.10;5.30;;;24.90;50.30;;;28.16;33.09;101664.31;5046048;28;20233;-64
2023/06/09 08:17:01;;;;;;;7.10;4.80;;;25.10;50.20;;;28.99;31.94;101664.84;5047904;28;20207;-64
2023/06/09 08:19:34;;;;;;;10.07;5.00;;;25.30;49.50;;;30.24;30.33;101659.97;5042114;28;20225;-65
2023/06/09 08:22:03;;;;;;;5.97;4.47;;;25.70;49.00;;;31.65;28.75;101664.06;5052499;28;20447;-64
2023/06/09 08:24:30;;;;;;;7.73;4.43;;;26.30;49.00;;;32.97;27.06;101665.56;5054349;28;20300;-67
2023/06/09 08:26:58;;;;;;;6.17;4.47;;;27.10;46.70;;;34.02;25.26;101665.31;5054402;28;20681;-65
2023/06/09 08:29:25;;;;;;;8.30;6.30;;;27.80;43.90;;;35.09;24.00;101662.34;5049329;28;20601;-64
2023/06/09 08:31:53;;;;;;;5.83;5.03;;;28.70;41.90;;;36.16;22.76;101662.78;5054038;28;20272;-64
2023/06/09 08:34:20;;;;;;;5.43;4.90;;;29.40;40.20;;;37.06;22.55;101653.38;5054249;28;20225;-65
2023/06/09 08:36:47;;;;;;;6.45;5.25;;;30.20;39.20;;;38.01;21.65;101654.44;5053405;28;20277;-66
2023/06/09 08:39:15;;;;;;;5.63;5.07;;;31.00;38.50;;;38.76;20.19;101657.91;5043340;28;20198;-65
2023/06/09 08:41:49;;;;;;;6.47;4.90;;;31.70;36.00;;;39.49;19.29;101662.28;5053289;28;20287;-65
2023/06/09 08:44:19;;;;;;;5.13;4.40;;;32.30;34.40;;;40.23;18.81;101658.19;5044007;28;20235;-65
2023/06/09 08:46:49;;;;;;;7.10;3.67;;;32.90;32.70;;;40.87;17.81;101664.31;5054390;28;20185;-64
2023/06/09 08:49:19;;;;;;;6.45;4.32;;;33.40;31.60;;;41.48;17.86;101655.50;5052159;28;20209;-64
2023/06/09 08:51:47;;;;;;;6.07;4.63;;;34.00;30.80;;;41.94;16.85;101649.00;5054009;28;20277;-63
2023/06/09 08:54:17;;;;;;;10.48;9.57;;;34.50;29.60;;;42.26;16.53;101641.34;5053777;28;20186;-65
2023/06/09 08:56:47;;;;;;;5.93;5.35;;;34.90;29.10;;;42.34;15.99;101651.41;5049864;28;20616;-64
2023/06/09 08:59:17;;;;;;;4.88;4.47;;;35.30;28.40;;;42.58;16.47;101651.06;5036880;28;20217;-64
2023/06/09 09:01:48;;;;;;;5.45;4.95;;;35.60;28.10;;;42.98;15.53;101653.34;5054374;28;20214;-65
2023/06/09 09:04:17;;;;;;;4.95;4.45;;;35.90;27.00;;;43.23;14.89;101650.94;5049333;28;20194;-65
2023/06/09 09:06:45;;;;;;;7.00;5.53;;;36.20;25.90;;;43.41;14.60;101650.03;5048744;28;20198;-66
2023/06/09 09:09:16;;;;;;;5.32;4.68;;;36.40;25.30;;;43.70;14.81;101656.81;5041202;28;20278;-66
2023/06/09 09:11:45;;;;;;;7.35;5.30;;;36.60;25.40;;;43.97;13.89;101654.75;5042195;28;20232;-65
2023/06/09 09:14:14;;;;;;;5.50;4.80;;;36.70;24.70;;;44.03;14.21;101650.47;5052659;28;20221;-65
2023/06/09 09:16:41;;;;;;;5.78;5.10;;;36.90;24.60;;;44.00;14.17;101654.81;5044376;28;20205;-66
2023/06/09 09:19:11;;;;;;;5.53;4.93;;;37.20;24.50;;;44.06;13.86;101641.38;5042751;28;20200;-65
2023/06/09 09:21:39;;;;;;;4.97;4.57;;;37.30;24.20;;;44.17;14.18;101642.31;5052904;28;20220;-66
2023/06/09 09:24:12;;;;;;;7.25;5.28;;;37.40;24.30;;;44.54;13.92;101640.31;5053586;28;20650;-64
2023/06/09 09:26:40;;;;;;;7.15;5.28;;;37.60;24.60;;;44.86;13.14;101638.63;5053088;28;20220;-65
2023/06/09 09:29:15;;;;;;;5.40;4.68;;;37.80;23.70;;;45.12;13.60;101648.75;5045626;28;20215;-63
2023/06/09 09:31:42;;;;;;;4.85;4.45;;;37.90;23.80;;;45.38;13.75;101640.19;5047568;28;20323;-66
2023/06/09 09:34:11;;;;;;;4.80;4.40;;;38.10;24.20;;;45.92;13.20;101644.00;5039539;28;20213;-65
2023/06/09 09:36:43;;;;;;;5.38;4.32;;;38.30;24.70;;;46.34;13.40;101635.00;5051380;28;20256;-64
2023/06/09 09:39:10;;;;;;;6.35;5.25;;;38.60;23.80;;;46.50;12.46;101639.00;5045618;28;20186;-65
2023/06/09 09:41:37;;;;;;;5.47;4.97;;;38.80;23.30;;;46.80;12.42;101630.25;5047602;28;20209;-64
2023/06/09 09:44:04;;;;;;;7.22;5.50;;;39.00;23.40;;;47.06;12.31;101629.84;5032209;28;20277;-65
2023/06/09 09:46:36;;;;;;;6.53;5.32;;;39.10;23.30;;;47.10;12.24;101629.84;5031076;28;20256;-65
2023/06/09 09:49:07;;;;;;;5.70;4.68;;;39.30;22.70;;;47.16;12.34;101631.81;5031507;28;20206;-65
2023/06/09 09:51:37;;;;;;;5.68;5.20;;;39.40;22.90;;;47.23;11.94;101630.97;5042201;28;20571;-65
2023/06/09 09:54:08;;;;;;;5.53;4.97;;;39.50;22.40;;;47.28;12.16;101623.00;5045463;28;20268;-65
2023/06/09 09:56:35;;;;;;;6.18;4.85;;;39.60;22.20;;;47.14;11.49;101628.63;5051163;28;20202;-65
2023/06/09 09:59:02;;;;;;;5.65;4.95;;;39.70;21.50;;;47.20;11.55;101635.38;5052605;28;20202;-64
2023/06/09 10:01:30;;;;;;;5.25;4.78;;;39.70;21.70;;;47.26;11.87;101631.00;5049851;28;20293;-64
2023/06/09 10:03:58;;;;;;;5.30;4.90;;;39.70;21.70;;;47.55;11.81;101623.31;5038803;28;20667;-65
2023/06/09 10:06:29;;;;;;;7.50;5.45;;;39.80;22.00;;;47.79;11.54;101630.00;5045636;28;20214;-66
2023/06/09 10:08:58;;;;;;;5.63;5.03;;;39.80;21.70;;;47.69;11.19;101625.25;5049423;28;20185;-65
2023/06/09 10:11:31;;;;;;;9.55;5.25;;;39.80;21.20;;;47.49;11.40;101630.53;5055696;28;20198;-64
2023/06/09 10:14:00;;;;;;;5.78;5.28;;;39.80;21.10;;;47.02;10.97;101626.22;5049972;28;20206;-65
2023/06/09 10:16:28;;;;;;;5.38;4.82;;;39.70;20.40;;;46.42;11.32;101626.25;5046482;28;20186;-65